sensor_id;sensor_type;location;lat;lon;timestamp;noise_LAeq;noise_LA_min;noise_LA_max;noise_LA01;noise_LA95
71016;Laerm;60940;52.046;5.340;2023-05-08T00:00:03;28.92;27.87;30.28;;
71016;Laerm;60940;52.046;5.340;2023-05-08T00:00:14;28.96;27.85;30.02;;
71016;Laerm;60940;52.046;5.340;2023-05-08T00:00:24;28.91;27.86;29.71;;
71016;Laerm;60940;52.046;5.340;2023-05-08T00:00:34;28.94;27.96;29.91;;
71016;Laerm;60940;52.046;5.340;2023-05-08T00:00:44;28.94;28.00;29.90;;
71016;Laerm;60940;52.046;5.340;2023-05-08T00:00:55;28.94;27.87;30.13;;
71016;Laerm;60940;52.046;5.340;2023-05-08T00:01:05;28.93;27.60;30.17;;
71016;Laerm;60940;52.046;5.340;2023-05-08T00:01:16;28.92;27.98;30.15;;
71016;Laerm;60940;52.046;5.340;2023-05-08T00:01:28;28.90;27.57;29.84;;
71016;Laerm;60940;52.046;5.340;2023-05-08T00:01:39;28.97;27.52;30.10;;
71016;Laerm;60940;52.046;5.340;2023-05-08T00:01:49;28.90;27.67;30.15;;
71016;Laerm;60940;52.046;5.340;2023-05-08T00:01:59;29.04;28.02;30.14;;
71016;Laerm;60940;52.046;5.340;2023-05-08T00:02:09;28.93;27.94;30.37;;
71016;Laerm;60940;52.046;5.340;2023-05-08T00:02:20;28.92;27.99;29.83;;
71016;Laerm;60940;52.046;5.340;2023-05-08T00:02:30;28.92;27.82;30.29;;
71016;Laerm;60940;52.046;5.340;2023-05-08T00:02:40;28.95;27.88;30.30;;
71016;Laerm;60940;52.046;5.340;2023-05-08T00:02:51;28.93;27.96;30.04;;
71016;Laerm;60940;52.046;5.340;2023-05-08T00:03:01;28.94;27.79;30.08;;
71016;Laerm;60940;52.046;5.340;2023-05-08T00:03:12;29.00;27.85;30.20;;
71016;Laerm;60940;52.046;5.340;2023-05-08T00:03:22;29.00;27.87;29.89;;
71016;Laerm;60940;52.046;5.340;2023-05-08T00:03:33;28.95;27.59;29.86;;
71016;Laerm;60940;52.046;5.340;2023-05-08T00:03:43;28.95;27.86;29.99;;
71016;Laerm;60940;52.046;5.340;2023-05-08T00:03:53;28.95;27.83;30.24;;
71016;Laerm;60940;52.046;5.340;2023-05-08T00:04:03;28.95;27.65;30.22;;
71016;Laerm;60940;52.046;5.340;2023-05-08T00:04:14;28.94;27.81;31.26;;
71016;Laerm;60940;52.046;5.340;2023-05-08T00:04:24;28.99;27.57;30.03;;
71016;Laerm;60940;52.046;5.340;2023-05-08T00:04:34;28.93;27.61;30.04;;
71016;Laerm;60940;52.046;5.340;2023-05-08T00:04:45;29.03;27.84;31.21;;
71016;Laerm;60940;52.046;5.340;2023-05-08T00:04:55;28.94;27.73;29.93;;
71016;Laerm;60940;52.046;5.340;2023-05-08T00:05:05;28.95;28.01;30.08;;
71016;Laerm;60940;52.046;5.340;2023-05-08T00:05:15;28.91;27.61;29.93;;
71016;Laerm;60940;52.046;5.340;2023-05-08T00:05:26;28.96;27.55;30.26;;
71016;Laerm;60940;52.046;5.340;2023-05-08T00:05:36;28.94;27.92;30.04;;
71016;Laerm;60940;52.046;5.340;2023-05-08T00:05:46;28.94;27.97;30.31;;
71016;Laerm;60940;52.046;5.340;2023-05-08T00:05:56;29.03;27.86;30.19;;
71016;Laerm;60940;52.046;5.340;2023-05-08T00:06:07;28.91;27.98;30.10;;
71016;Laerm;60940;52.046;5.340;2023-05-08T00:06:17;28.99;28.05;30.36;;
71016;Laerm;60940;52.046;5.340;2023-05-08T00:06:27;29.02;27.74;30.02;;
71016;Laerm;60940;52.046;5.340;2023-05-08T00:06:37;28.98;27.92;29.86;;
71016;Laerm;60940;52.046;5.340;2023-05-08T00:06:47;29.06;28.10;30.47;;
71016;Laerm;60940;52.046;5.340;2023-05-08T00:06:58;29.01;27.67;30.18;;
71016;Laerm;60940;52.046;5.340;2023-05-08T00:07:09;29.04;28.06;30.18;;
71016;Laerm;60940;52.046;5.340;2023-05-08T00:07:19;28.95;27.63;30.09;;
71016;Laerm;60940;52.046;5.340;2023-05-08T00:07:30;29.06;27.94;30.09;;
71016;Laerm;60940;52.046;5.340;2023-05-08T00:07:40;29.04;27.96;30.52;;
71016;Laerm;60940;52.046;5.340;2023-05-08T00:07:50;28.98;28.14;29.96;;
71016;Laerm;60940;52.046;5.340;2023-05-08T00:08:01;29.42;28.06;31.03;;
71016;Laerm;60940;52.046;5.340;2023-05-08T00:08:11;30.13;28.29;32.18;;
71016;Laerm;60940;52.046;5.340;2023-05-08T00:08:22;29.11;28.08;30.27;;
71016;Laerm;60940;52.046;5.340;2023-05-08T00:08:32;29.04;28.08;30.22;;
71016;Laerm;60940;52.046;5.340;2023-05-08T00:08:42;29.11;27.87;30.28;;
71016;Laerm;60940;52.046;5.340;2023-05-08T00:08:53;29.11;27.98;30.18;;
71016;Laerm;60940;52.046;5.340;2023-05-08T00:09:04;29.06;27.59;30.27;;
71016;Laerm;60940;52.046;5.340;2023-05-08T00:09:14;29.13;28.04;30.22;;
71016;Laerm;60940;52.046;5.340;2023-05-08T00:09:25;29.21;28.16;30.49;;
71016;Laerm;60940;52.046;5.340;2023-05-08T00:09:35;30.51;28.64;34.17;;
71016;Laerm;60940;52.046;5.340;2023-05-08T00:09:46;33.14;30.64;36.61;;
71016;Laerm;60940;52.046;5.340;2023-05-08T00:09:56;35.41;32.05;37.95;;
71016;Laerm;60940;52.046;5.340;2023-05-08T00:10:07;30.73;28.35;37.11;;
71016;Laerm;60940;52.046;5.340;2023-05-08T00:10:17;29.22;28.22;30.27;;
71016;Laerm;60940;52.046;5.340;2023-05-08T00:10:28;29.18;27.96;30.09;;
71016;Laerm;60940;52.046;5.340;2023-05-08T00:10:38;29.16;28.18;33.76;;
71016;Laerm;60940;52.046;5.340;2023-05-08T00:10:49;29.08;28.09;29.98;;
71016;Laerm;60940;52.046;5.340;2023-05-08T00:10:59;29.09;28.02;33.07;;
71016;Laerm;60940;52.046;5.340;2023-05-08T00:11:09;29.05;28.11;30.10;;
71016;Laerm;60940;52.046;5.340;2023-05-08T00:11:20;29.06;27.95;30.09;;
71016;Laerm;60940;52.046;5.340;2023-05-08T00:11:30;29.06;28.12;30.38;;
71016;Laerm;60940;52.046;5.340;2023-05-08T00:11:40;29.03;28.01;30.08;;
71016;Laerm;60940;52.046;5.340;2023-05-08T00:11:50;29.04;28.06;30.21;;
71016;Laerm;60940;52.046;5.340;2023-05-08T00:12:00;29.41;28.13;38.83;;
71016;Laerm;60940;52.046;5.340;2023-05-08T00:12:11;29.10;28.07;30.23;;
71016;Laerm;60940;52.046;5.340;2023-05-08T00:12:21;29.04;28.04;30.09;;
71016;Laerm;60940;52.046;5.340;2023-05-08T00:12:31;29.20;28.25;33.29;;
71016;Laerm;60940;52.046;5.340;2023-05-08T00:12:41;29.07;27.82;30.32;;
71016;Laerm;60940;52.046;5.340;2023-05-08T00:12:52;29.01;27.89;30.31;;
71016;Laerm;60940;52.046;5.340;2023-05-08T00:13:02;29.02;27.62;29.92;;
71016;Laerm;60940;52.046;5.340;2023-05-08T00:13:12;28.99;27.99;29.99;;
71016;Laerm;60940;52.046;5.340;2023-05-08T00:13:22;29.04;27.74;30.15;;
71016;Laerm;60940;52.046;5.340;2023-05-08T00:13:33;29.04;28.16;30.42;;
71016;Laerm;60940;52.046;5.340;2023-05-08T00:13:43;29.11;27.84;36.24;;
71016;Laerm;60940;52.046;5.340;2023-05-08T00:13:53;29.01;27.97;30.50;;
71016;Laerm;60940;52.046;5.340;2023-05-08T00:14:03;29.06;28.09;30.63;;
71016;Laerm;60940;52.046;5.340;2023-05-08T00:14:14;29.04;28.05;30.39;;
71016;Laerm;60940;52.046;5.340;2023-05-08T00:14:24;29.05;27.84;29.97;;
71016;Laerm;60940;52.046;5.340;2023-05-08T00:14:34;29.11;27.71;30.19;;
71016;Laerm;60940;52.046;5.340;2023-05-08T00:14:45;29.10;28.15;30.93;;
71016;Laerm;60940;52.046;5.340;2023-05-08T00:14:55;30.13;28.11;44.21;;
71016;Laerm;60940;52.046;5.340;2023-05-08T00:15:05;29.37;28.13;33.48;;
71016;Laerm;60940;52.046;5.340;2023-05-08T00:15:16;29.18;27.65;30.21;;
71016;Laerm;60940;52.046;5.340;2023-05-08T00:15:26;29.31;28.12;30.38;;
71016;Laerm;60940;52.046;5.340;2023-05-08T00:15:36;29.18;28.10;30.24;;
71016;Laerm;60940;52.046;5.340;2023-05-08T00:15:46;29.26;28.09;32.02;;
71016;Laerm;60940;52.046;5.340;2023-05-08T00:15:56;29.06;27.96;30.39;;
71016;Laerm;60940;52.046;5.340;2023-05-08T00:16:07;32.48;27.42;52.19;;
71016;Laerm;60940;52.046;5.340;2023-05-08T00:16:18;30.88;27.89;48.55;;
71016;Laerm;60940;52.046;5.340;2023-05-08T00:16:28;29.11;28.09;30.51;;
71016;Laerm;60940;52.046;5.340;2023-05-08T00:16:41;29.07;27.98;30.38;;
71016;Laerm;60940;52.046;5.340;2023-05-08T00:16:52;29.01;27.84;30.26;;
71016;Laerm;60940;52.046;5.340;2023-05-08T00:17:02;29.05;28.03;30.20;;
71016;Laerm;60940;52.046;5.340;2023-05-08T00:17:12;29.03;27.99;30.08;;
71016;Laerm;60940;52.046;5.340;2023-05-08T00:17:22;29.05;27.74;30.17;;
71016;Laerm;60940;52.046;5.340;2023-05-08T00:17:32;29.00;28.04;30.07;;
71016;Laerm;60940;52.046;5.340;2023-05-08T00:17:43;29.11;27.83;30.34;;
71016;Laerm;60940;52.046;5.340;2023-05-08T00:17:53;29.09;28.01;30.56;;
71016;Laerm;60940;52.046;5.340;2023-05-08T00:18:03;29.12;28.11;31.00;;
71016;Laerm;60940;52.046;5.340;2023-05-08T00:18:14;29.69;28.32;32.11;;
71016;Laerm;60940;52.046;5.340;2023-05-08T00:18:26;30.73;28.82;35.11;;
71016;Laerm;60940;52.046;5.340;2023-05-08T00:18:36;32.79;29.19;39.12;;
71016;Laerm;60940;52.046;5.340;2023-05-08T00:18:47;33.92;29.89;41.43;;
71016;Laerm;60940;52.046;5.340;2023-05-08T00:18:57;34.16;29.72;39.37;;
71016;Laerm;60940;52.046;5.340;2023-05-08T00:19:08;33.37;29.21;41.81;;
71016;Laerm;60940;52.046;5.340;2023-05-08T00:19:19;32.38;29.30;38.12;;
71016;Laerm;60940;52.046;5.340;2023-05-08T00:19:29;31.30;28.79;35.86;;
71016;Laerm;60940;52.046;5.340;2023-05-08T00:19:39;30.99;28.54;35.46;;
71016;Laerm;60940;52.046;5.340;2023-05-08T00:19:49;29.80;28.18;32.78;;
71016;Laerm;60940;52.046;5.340;2023-05-08T00:19:59;29.57;28.00;31.43;;
71016;Laerm;60940;52.046;5.340;2023-05-08T00:20:10;29.79;28.23;32.82;;
71016;Laerm;60940;52.046;5.340;2023-05-08T00:20:21;29.62;28.20;34.29;;
71016;Laerm;60940;52.046;5.340;2023-05-08T00:20:31;29.33;27.97;31.73;;
71016;Laerm;60940;52.046;5.340;2023-05-08T00:20:43;29.44;27.92;32.13;;
71016;Laerm;60940;52.046;5.340;2023-05-08T00:20:53;29.07;27.95;30.47;;
71016;Laerm;60940;52.046;5.340;2023-05-08T00:21:04;29.02;27.78;30.00;;
71016;Laerm;60940;52.046;5.340;2023-05-08T00:21:14;29.09;28.04;30.70;;
71016;Laerm;60940;52.046;5.340;2023-05-08T00:21:24;29.03;28.09;30.16;;
71016;Laerm;60940;52.046;5.340;2023-05-08T00:21:34;29.09;28.17;30.59;;
71016;Laerm;60940;52.046;5.340;2023-05-08T00:21:45;29.11;28.08;30.14;;
71016;Laerm;60940;52.046;5.340;2023-05-08T00:21:55;29.02;27.74;30.09;;
71016;Laerm;60940;52.046;5.340;2023-05-08T00:22:05;28.98;27.78;30.04;;
71016;Laerm;60940;52.046;5.340;2023-05-08T00:22:15;28.95;27.73;30.07;;
71016;Laerm;60940;52.046;5.340;2023-05-08T00:22:26;28.96;27.64;32.75;;
71016;Laerm;60940;52.046;5.340;2023-05-08T00:22:36;28.97;27.93;29.96;;
71016;Laerm;60940;52.046;5.340;2023-05-08T00:22:46;28.98;27.94;30.01;;
71016;Laerm;60940;52.046;5.340;2023-05-08T00:22:56;28.97;27.93;29.93;;
71016;Laerm;60940;52.046;5.340;2023-05-08T00:23:06;29.05;27.81;30.38;;
71016;Laerm;60940;52.046;5.340;2023-05-08T00:23:17;28.99;27.76;30.10;;
71016;Laerm;60940;52.046;5.340;2023-05-08T00:23:27;28.97;28.10;30.00;;
71016;Laerm;60940;52.046;5.340;2023-05-08T00:23:37;28.97;27.87;30.45;;
71016;Laerm;60940;52.046;5.340;2023-05-08T00:23:47;29.02;27.62;30.13;;
71016;Laerm;60940;52.046;5.340;2023-05-08T00:23:58;29.02;27.83;30.26;;
71016;Laerm;60940;52.046;5.340;2023-05-08T00:24:08;28.98;27.90;30.00;;
71016;Laerm;60940;52.046;5.340;2023-05-08T00:24:18;29.01;27.84;30.19;;
71016;Laerm;60940;52.046;5.340;2023-05-08T00:24:28;29.01;27.67;30.06;;
71016;Laerm;60940;52.046;5.340;2023-05-08T00:24:38;28.98;27.35;30.27;;
71016;Laerm;60940;52.046;5.340;2023-05-08T00:24:49;29.00;27.99;30.15;;
71016;Laerm;60940;52.046;5.340;2023-05-08T00:24:59;29.01;27.91;30.51;;
71016;Laerm;60940;52.046;5.340;2023-05-08T00:25:09;29.03;28.00;30.11;;
71016;Laerm;60940;52.046;5.340;2023-05-08T00:25:19;29.00;27.95;30.07;;
71016;Laerm;60940;52.046;5.340;2023-05-08T00:25:30;28.94;27.90;29.78;;
71016;Laerm;60940;52.046;5.340;2023-05-08T00:25:40;29.02;27.97;30.15;;
71016;Laerm;60940;52.046;5.340;2023-05-08T00:25:51;29.03;27.83;31.13;;
71016;Laerm;60940;52.046;5.340;2023-05-08T00:26:01;29.01;28.09;30.06;;
71016;Laerm;60940;52.046;5.340;2023-05-08T00:26:11;29.00;27.69;30.20;;
71016;Laerm;60940;52.046;5.340;2023-05-08T00:26:22;28.97;27.82;30.07;;
71016;Laerm;60940;52.046;5.340;2023-05-08T00:26:32;29.02;27.89;30.10;;
71016;Laerm;60940;52.046;5.340;2023-05-08T00:26:42;28.97;28.18;30.23;;
71016;Laerm;60940;52.046;5.340;2023-05-08T00:26:53;28.96;27.95;30.65;;
71016;Laerm;60940;52.046;5.340;2023-05-08T00:27:03;29.00;27.96;30.65;;
71016;Laerm;60940;52.046;5.340;2023-05-08T00:27:13;29.00;28.05;30.19;;
71016;Laerm;60940;52.046;5.340;2023-05-08T00:27:24;29.02;27.90;35.04;;
71016;Laerm;60940;52.046;5.340;2023-05-08T00:27:34;28.99;28.04;30.33;;
71016;Laerm;60940;52.046;5.340;2023-05-08T00:27:44;28.99;28.11;30.24;;
71016;Laerm;60940;52.046;5.340;2023-05-08T00:27:54;28.94;27.88;30.13;;
71016;Laerm;60940;52.046;5.340;2023-05-08T00:28:04;28.96;27.95;30.23;;
71016;Laerm;60940;52.046;5.340;2023-05-08T00:28:15;28.93;27.57;29.92;;
71016;Laerm;60940;52.046;5.340;2023-05-08T00:28:25;28.95;27.90;29.97;;
71016;Laerm;60940;52.046;5.340;2023-05-08T00:28:35;28.93;27.85;29.89;;
71016;Laerm;60940;52.046;5.340;2023-05-08T00:28:46;28.94;27.99;30.05;;
71016;Laerm;60940;52.046;5.340;2023-05-08T00:28:56;28.95;27.90;30.03;;
71016;Laerm;60940;52.046;5.340;2023-05-08T00:29:06;29.00;27.92;29.97;;
71016;Laerm;60940;52.046;5.340;2023-05-08T00:29:16;29.12;27.90;32.41;;
71016;Laerm;60940;52.046;5.340;2023-05-08T00:29:26;28.97;27.60;30.57;;
71016;Laerm;60940;52.046;5.340;2023-05-08T00:29:37;28.99;28.00;30.06;;
71016;Laerm;60940;52.046;5.340;2023-05-08T00:29:49;29.04;27.79;30.05;;
71016;Laerm;60940;52.046;5.340;2023-05-08T00:29:59;29.03;28.02;30.27;;
71016;Laerm;60940;52.046;5.340;2023-05-08T00:30:09;29.02;27.98;30.30;;
71016;Laerm;60940;52.046;5.340;2023-05-08T00:30:20;29.02;27.91;29.90;;
71016;Laerm;60940;52.046;5.340;2023-05-08T00:30:30;29.00;27.89;30.21;;
71016;Laerm;60940;52.046;5.340;2023-05-08T00:30:40;28.96;27.68;29.92;;
71016;Laerm;60940;52.046;5.340;2023-05-08T00:30:51;29.08;27.92;30.28;;
71016;Laerm;60940;52.046;5.340;2023-05-08T00:31:01;29.00;27.91;30.03;;
71016;Laerm;60940;52.046;5.340;2023-05-08T00:31:12;28.97;28.03;30.07;;
71016;Laerm;60940;52.046;5.340;2023-05-08T00:31:22;29.06;27.92;30.21;;
71016;Laerm;60940;52.046;5.340;2023-05-08T00:31:33;29.20;28.12;30.58;;
71016;Laerm;60940;52.046;5.340;2023-05-08T00:31:43;28.98;27.83;30.20;;
71016;Laerm;60940;52.046;5.340;2023-05-08T00:31:53;29.03;27.96;30.06;;
71016;Laerm;60940;52.046;5.340;2023-05-08T00:32:03;29.06;28.12;31.54;;
71016;Laerm;60940;52.046;5.340;2023-05-08T00:32:13;29.03;27.97;30.08;;
71016;Laerm;60940;52.046;5.340;2023-05-08T00:32:24;28.99;27.96;30.33;;
71016;Laerm;60940;52.046;5.340;2023-05-08T00:32:34;29.00;27.84;30.07;;
71016;Laerm;60940;52.046;5.340;2023-05-08T00:32:44;28.97;27.75;30.37;;
71016;Laerm;60940;52.046;5.340;2023-05-08T00:32:55;29.01;27.93;30.27;;
71016;Laerm;60940;52.046;5.340;2023-05-08T00:33:06;28.95;27.94;30.07;;
71016;Laerm;60940;52.046;5.340;2023-05-08T00:33:16;28.93;27.68;30.18;;
71016;Laerm;60940;52.046;5.340;2023-05-08T00:33:26;28.97;27.93;29.93;;
71016;Laerm;60940;52.046;5.340;2023-05-08T00:33:36;28.99;28.00;30.17;;
71016;Laerm;60940;52.046;5.340;2023-05-08T00:33:47;29.28;27.94;38.20;;
71016;Laerm;60940;52.046;5.340;2023-05-08T00:33:57;29.06;27.64;30.96;;
71016;Laerm;60940;52.046;5.340;2023-05-08T00:34:07;28.92;27.99;30.14;;
71016;Laerm;60940;52.046;5.340;2023-05-08T00:34:17;28.97;27.88;31.93;;
71016;Laerm;60940;52.046;5.340;2023-05-08T00:34:28;28.99;27.95;29.97;;
71016;Laerm;60940;52.046;5.340;2023-05-08T00:34:38;28.94;27.92;30.27;;
71016;Laerm;60940;52.046;5.340;2023-05-08T00:34:48;28.94;28.04;29.91;;
71016;Laerm;60940;52.046;5.340;2023-05-08T00:34:58;28.93;27.78;30.09;;
71016;Laerm;60940;52.046;5.340;2023-05-08T00:35:08;28.95;27.80;29.93;;
71016;Laerm;60940;52.046;5.340;2023-05-08T00:35:19;29.04;28.03;30.14;;
71016;Laerm;60940;52.046;5.340;2023-05-08T00:35:29;28.99;27.79;30.32;;
71016;Laerm;60940;52.046;5.340;2023-05-08T00:35:39;28.99;27.89;29.99;;
71016;Laerm;60940;52.046;5.340;2023-05-08T00:35:58;28.96;28.04;30.13;;
71016;Laerm;60940;52.046;5.340;2023-05-08T00:36:09;28.98;28.05;30.12;;
71016;Laerm;60940;52.046;5.340;2023-05-08T00:36:19;29.05;28.02;30.37;;
71016;Laerm;60940;52.046;5.340;2023-05-08T00:36:29;29.02;28.11;30.09;;
71016;Laerm;60940;52.046;5.340;2023-05-08T00:36:41;28.99;27.76;30.04;;
71016;Laerm;60940;52.046;5.340;2023-05-08T00:36:51;28.99;27.96;30.28;;
71016;Laerm;60940;52.046;5.340;2023-05-08T00:37:01;28.92;27.89;30.09;;
71016;Laerm;60940;52.046;5.340;2023-05-08T00:37:12;28.97;27.83;30.19;;
71016;Laerm;60940;52.046;5.340;2023-05-08T00:37:22;29.01;27.71;30.00;;
71016;Laerm;60940;52.046;5.340;2023-05-08T00:37:32;29.08;27.91;30.65;;
71016;Laerm;60940;52.046;5.340;2023-05-08T00:37:43;29.13;27.98;31.01;;
71016;Laerm;60940;52.046;5.340;2023-05-08T00:37:53;29.98;28.26;33.58;;
71016;Laerm;60940;52.046;5.340;2023-05-08T00:38:03;31.65;29.00;36.52;;
71016;Laerm;60940;52.046;5.340;2023-05-08T00:38:13;34.47;29.59;40.60;;
71016;Laerm;60940;52.046;5.340;2023-05-08T00:38:23;35.93;30.29;42.29;;
71016;Laerm;60940;52.046;5.340;2023-05-08T00:38:34;34.03;29.85;38.91;;
71016;Laerm;60940;52.046;5.340;2023-05-08T00:38:44;33.31;29.01;39.48;;
71016;Laerm;60940;52.046;5.340;2023-05-08T00:38:55;33.60;29.57;41.37;;
71016;Laerm;60940;52.046;5.340;2023-05-08T00:39:05;31.71;28.59;36.99;;
71016;Laerm;60940;52.046;5.340;2023-05-08T00:39:15;31.78;29.28;36.73;;
71016;Laerm;60940;52.046;5.340;2023-05-08T00:39:25;30.91;29.07;36.31;;
71016;Laerm;60940;52.046;5.340;2023-05-08T00:39:36;30.57;28.52;34.22;;
71016;Laerm;60940;52.046;5.340;2023-05-08T00:39:46;30.20;28.62;33.96;;
71016;Laerm;60940;52.046;5.340;2023-05-08T00:39:56;29.67;28.30;32.57;;
71016;Laerm;60940;52.046;5.340;2023-05-08T00:40:09;29.74;28.14;32.19;;
71016;Laerm;60940;52.046;5.340;2023-05-08T00:40:20;29.30;28.16;31.23;;
71016;Laerm;60940;52.046;5.340;2023-05-08T00:40:30;29.29;28.17;32.02;;
71016;Laerm;60940;52.046;5.340;2023-05-08T00:40:40;29.14;27.67;31.23;;
71016;Laerm;60940;52.046;5.340;2023-05-08T00:40:51;29.10;27.96;30.32;;
71016;Laerm;60940;52.046;5.340;2023-05-08T00:41:02;29.01;27.81;30.00;;
71016;Laerm;60940;52.046;5.340;2023-05-08T00:41:12;28.99;27.87;30.09;;
71016;Laerm;60940;52.046;5.340;2023-05-08T00:41:22;28.95;27.55;29.98;;
71016;Laerm;60940;52.046;5.340;2023-05-08T00:41:33;28.99;27.98;30.17;;
71016;Laerm;60940;52.046;5.340;2023-05-08T00:41:43;28.92;27.92;29.79;;
71016;Laerm;60940;52.046;5.340;2023-05-08T00:41:53;28.92;27.50;29.81;;
71016;Laerm;60940;52.046;5.340;2023-05-08T00:42:03;29.15;28.14;30.25;;
71016;Laerm;60940;52.046;5.340;2023-05-08T00:42:14;30.05;28.76;31.67;;
71016;Laerm;60940;52.046;5.340;2023-05-08T00:42:24;29.17;28.13;31.06;;
71016;Laerm;60940;52.046;5.340;2023-05-08T00:42:34;29.15;28.14;30.36;;
71016;Laerm;60940;52.046;5.340;2023-05-08T00:42:44;29.23;28.07;30.15;;
71016;Laerm;60940;52.046;5.340;2023-05-08T00:42:54;29.05;27.87;30.01;;
71016;Laerm;60940;52.046;5.340;2023-05-08T00:43:05;28.91;27.78;30.11;;
71016;Laerm;60940;52.046;5.340;2023-05-08T00:43:15;28.92;27.91;29.88;;
71016;Laerm;60940;52.046;5.340;2023-05-08T00:43:26;28.98;27.84;30.73;;
71016;Laerm;60940;52.046;5.340;2023-05-08T00:43:39;28.94;28.03;29.99;;
71016;Laerm;60940;52.046;5.340;2023-05-08T00:43:50;28.92;28.11;29.91;;
71016;Laerm;60940;52.046;5.340;2023-05-08T00:44:00;28.92;27.87;30.06;;
71016;Laerm;60940;52.046;5.340;2023-05-08T00:44:10;28.91;27.82;30.34;;
71016;Laerm;60940;52.046;5.340;2023-05-08T00:44:20;28.91;27.74;30.15;;
71016;Laerm;60940;52.046;5.340;2023-05-08T00:44:31;28.96;27.79;30.01;;
71016;Laerm;60940;52.046;5.340;2023-05-08T00:44:41;28.95;27.97;30.33;;
71016;Laerm;60940;52.046;5.340;2023-05-08T00:44:51;29.00;27.90;30.00;;
71016;Laerm;60940;52.046;5.340;2023-05-08T00:45:02;28.92;27.55;29.89;;
71016;Laerm;60940;52.046;5.340;2023-05-08T00:45:12;28.94;27.84;30.29;;
71016;Laerm;60940;52.046;5.340;2023-05-08T00:45:22;29.00;27.38;31.79;;
71016;Laerm;60940;52.046;5.340;2023-05-08T00:45:36;29.00;27.91;30.27;;
71016;Laerm;60940;52.046;5.340;2023-05-08T00:45:46;28.92;27.99;29.96;;
71016;Laerm;60940;52.046;5.340;2023-05-08T00:45:59;28.91;27.76;29.85;;
71016;Laerm;60940;52.046;5.340;2023-05-08T00:46:10;28.93;27.78;30.02;;
71016;Laerm;60940;52.046;5.340;2023-05-08T00:46:20;28.88;27.79;30.13;;
71016;Laerm;60940;52.046;5.340;2023-05-08T00:46:31;28.90;27.73;30.08;;
71016;Laerm;60940;52.046;5.340;2023-05-08T00:46:41;28.91;27.87;30.16;;
71016;Laerm;60940;52.046;5.340;2023-05-08T00:46:52;28.96;27.91;29.97;;
71016;Laerm;60940;52.046;5.340;2023-05-08T00:47:02;28.94;27.95;29.90;;
71016;Laerm;60940;52.046;5.340;2023-05-08T00:47:12;28.92;27.93;29.98;;
71016;Laerm;60940;52.046;5.340;2023-05-08T00:47:23;28.92;27.97;29.95;;
71016;Laerm;60940;52.046;5.340;2023-05-08T00:47:33;28.91;27.71;29.99;;
71016;Laerm;60940;52.046;5.340;2023-05-08T00:47:43;28.95;27.99;29.90;;
71016;Laerm;60940;52.046;5.340;2023-05-08T00:47:54;28.88;27.87;29.89;;
71016;Laerm;60940;52.046;5.340;2023-05-08T00:48:04;28.93;27.94;29.84;;
71016;Laerm;60940;52.046;5.340;2023-05-08T00:48:15;28.87;27.81;29.90;;
71016;Laerm;60940;52.046;5.340;2023-05-08T00:48:29;28.90;27.83;29.88;;
71016;Laerm;60940;52.046;5.340;2023-05-08T00:48:40;28.95;27.92;29.91;;
71016;Laerm;60940;52.046;5.340;2023-05-08T00:48:51;28.93;27.96;30.00;;
71016;Laerm;60940;52.046;5.340;2023-05-08T00:49:02;28.91;27.63;30.46;;
71016;Laerm;60940;52.046;5.340;2023-05-08T00:49:14;28.92;27.77;30.01;;
71016;Laerm;60940;52.046;5.340;2023-05-08T00:49:25;28.94;27.30;30.27;;
71016;Laerm;60940;52.046;5.340;2023-05-08T00:49:35;28.93;27.71;30.05;;
71016;Laerm;60940;52.046;5.340;2023-05-08T00:49:45;28.96;27.92;30.02;;
71016;Laerm;60940;52.046;5.340;2023-05-08T00:49:56;29.02;28.10;30.31;;
71016;Laerm;60940;52.046;5.340;2023-05-08T00:50:07;28.95;27.56;30.25;;
71016;Laerm;60940;52.046;5.340;2023-05-08T00:50:18;28.94;27.86;30.04;;
71016;Laerm;60940;52.046;5.340;2023-05-08T00:50:28;29.02;27.90;30.15;;
71016;Laerm;60940;52.046;5.340;2023-05-08T00:50:39;29.07;27.89;30.30;;
71016;Laerm;60940;52.046;5.340;2023-05-08T00:50:49;29.76;28.22;31.49;;
71016;Laerm;60940;52.046;5.340;2023-05-08T00:51:01;29.28;27.98;30.54;;
71016;Laerm;60940;52.046;5.340;2023-05-08T00:51:13;29.18;27.77;33.35;;
71016;Laerm;60940;52.046;5.340;2023-05-08T00:51:24;29.24;27.86;31.44;;
71016;Laerm;60940;52.046;5.340;2023-05-08T00:51:34;28.98;28.01;30.01;;
71016;Laerm;60940;52.046;5.340;2023-05-08T00:51:45;28.93;27.86;29.88;;
71016;Laerm;60940;52.046;5.340;2023-05-08T00:51:56;29.04;28.16;30.20;;
71016;Laerm;60940;52.046;5.340;2023-05-08T00:52:06;30.49;28.02;48.43;;
71016;Laerm;60940;52.046;5.340;2023-05-08T00:52:19;30.32;28.14;33.11;;
71016;Laerm;60940;52.046;5.340;2023-05-08T00:52:29;34.29;31.54;37.19;;
71016;Laerm;60940;52.046;5.340;2023-05-08T00:52:40;32.73;28.65;37.35;;
71016;Laerm;60940;52.046;5.340;2023-05-08T00:52:50;29.18;28.05;30.39;;
71016;Laerm;60940;52.046;5.340;2023-05-08T00:53:01;29.05;27.85;30.35;;
71016;Laerm;60940;52.046;5.340;2023-05-08T00:53:12;29.06;27.87;31.49;;
71016;Laerm;60940;52.046;5.340;2023-05-08T00:53:22;29.02;27.98;30.20;;
71016;Laerm;60940;52.046;5.340;2023-05-08T00:53:35;28.94;27.92;29.95;;
71016;Laerm;60940;52.046;5.340;2023-05-08T00:53:46;29.08;27.88;30.29;;
71016;Laerm;60940;52.046;5.340;2023-05-08T00:53:56;29.03;27.95;29.95;;
71016;Laerm;60940;52.046;5.340;2023-05-08T00:54:07;28.97;27.97;30.16;;
71016;Laerm;60940;52.046;5.340;2023-05-08T00:54:17;28.93;27.99;30.19;;
71016;Laerm;60940;52.046;5.340;2023-05-08T00:54:28;28.97;27.81;29.93;;
71016;Laerm;60940;52.046;5.340;2023-05-08T00:54:38;28.96;27.76;30.23;;
71016;Laerm;60940;52.046;5.340;2023-05-08T00:54:49;29.01;27.93;30.24;;
71016;Laerm;60940;52.046;5.340;2023-05-08T00:55:00;28.98;27.83;30.24;;
71016;Laerm;60940;52.046;5.340;2023-05-08T00:55:11;29.04;27.93;30.19;;
71016;Laerm;60940;52.046;5.340;2023-05-08T00:55:21;28.98;27.83;30.09;;
71016;Laerm;60940;52.046;5.340;2023-05-08T00:55:32;28.95;27.92;30.12;;
71016;Laerm;60940;52.046;5.340;2023-05-08T00:55:42;28.98;28.05;29.98;;
71016;Laerm;60940;52.046;5.340;2023-05-08T00:55:52;28.93;27.99;30.19;;
71016;Laerm;60940;52.046;5.340;2023-05-08T00:56:02;28.90;27.58;29.83;;
71016;Laerm;60940;52.046;5.340;2023-05-08T00:56:14;28.94;27.86;30.37;;
71016;Laerm;60940;52.046;5.340;2023-05-08T00:56:25;28.95;27.82;30.14;;
71016;Laerm;60940;52.046;5.340;2023-05-08T00:56:37;28.95;27.97;30.15;;
71016;Laerm;60940;52.046;5.340;2023-05-08T00:56:48;29.01;27.86;30.39;;
71016;Laerm;60940;52.046;5.340;2023-05-08T00:56:59;28.99;27.95;30.25;;
71016;Laerm;60940;52.046;5.340;2023-05-08T00:57:09;28.98;28.09;29.92;;
71016;Laerm;60940;52.046;5.340;2023-05-08T00:57:20;28.96;27.88;29.93;;
71016;Laerm;60940;52.046;5.340;2023-05-08T00:57:31;28.97;27.98;29.93;;
71016;Laerm;60940;52.046;5.340;2023-05-08T00:57:41;28.93;27.91;30.26;;
71016;Laerm;60940;52.046;5.340;2023-05-08T00:57:54;28.96;27.42;29.95;;
71016;Laerm;60940;52.046;5.340;2023-05-08T00:58:05;28.97;27.57;30.25;;
71016;Laerm;60940;52.046;5.340;2023-05-08T00:58:15;29.03;27.87;30.84;;
71016;Laerm;60940;52.046;5.340;2023-05-08T00:58:26;28.96;27.94;29.93;;
71016;Laerm;60940;52.046;5.340;2023-05-08T00:58:36;28.94;27.72;30.41;;
71016;Laerm;60940;52.046;5.340;2023-05-08T00:58:47;28.94;27.92;29.98;;